sensor_id;sensor_type;location;lat;lon;timestamp;P1;durP1;ratioP1;P2;durP2;ratioP2
32319;SDS011;19080;51.750;5.888;2022-11-21T07:14:06;49.72;;;25.02;;
32319;SDS011;19080;51.750;5.888;2022-11-21T07:16:34;48.25;;;26.30;;
32319;SDS011;19080;51.750;5.888;2022-11-21T07:19:01;52.70;;;26.13;;
32319;SDS011;19080;51.750;5.888;2022-11-21T07:21:28;48.72;;;28.27;;
32319;SDS011;19080;51.750;5.888;2022-11-21T07:23:55;51.42;;;28.70;;
32319;SDS011;19080;51.750;5.888;2022-11-21T07:26:21;44.10;;;25.83;;
32319;SDS011;19080;51.750;5.888;2022-11-21T07:28:48;50.97;;;27.75;;
32319;SDS011;19080;51.750;5.888;2022-11-21T07:31:14;45.80;;;26.60;;
32319;SDS011;19080;51.750;5.888;2022-11-21T07:33:41;46.28;;;26.02;;
32319;SDS011;19080;51.750;5.888;2022-11-21T07:36:11;47.08;;;26.80;;
32319;SDS011;19080;51.750;5.888;2022-11-21T07:38:38;49.95;;;27.23;;
32319;SDS011;19080;51.750;5.888;2022-11-21T07:41:07;49.38;;;28.05;;
32319;SDS011;19080;51.750;5.888;2022-11-21T07:43:34;48.53;;;26.25;;
32319;SDS011;19080;51.750;5.888;2022-11-21T07:46:00;47.10;;;26.80;;
32319;SDS011;19080;51.750;5.888;2022-11-21T07:48:27;55.97;;;28.48;;
32319;SDS011;19080;51.750;5.888;2022-11-21T07:50:53;56.83;;;29.50;;
32319;SDS011;19080;51.750;5.888;2022-11-21T07:53:20;52.15;;;29.02;;
32319;SDS011;19080;51.750;5.888;2022-11-21T07:55:46;62.15;;;29.02;;
32319;SDS011;19080;51.750;5.888;2022-11-21T07:58:14;53.47;;;26.88;;
32319;SDS011;19080;51.750;5.888;2022-11-21T08:00:41;56.38;;;28.25;;
32319;SDS011;19080;51.750;5.888;2022-11-21T08:03:08;46.72;;;25.75;;
32319;SDS011;19080;51.750;5.888;2022-11-21T08:05:37;52.22;;;29.45;;
32319;SDS011;19080;51.750;5.888;2022-11-21T08:08:06;56.78;;;27.80;;
32319;SDS011;19080;51.750;5.888;2022-11-21T08:10:35;48.13;;;25.55;;
32319;SDS011;19080;51.750;5.888;2022-11-21T08:13:04;53.90;;;29.65;;
32319;SDS011;19080;51.750;5.888;2022-11-21T08:15:34;51.78;;;28.17;;
32319;SDS011;19080;51.750;5.888;2022-11-21T08:18:07;50.17;;;27.95;;
32319;SDS011;19080;51.750;5.888;2022-11-21T08:20:41;52.38;;;25.00;;
32319;SDS011;19080;51.750;5.888;2022-11-21T08:23:08;50.38;;;27.67;;
32319;SDS011;19080;51.750;5.888;2022-11-21T08:25:36;47.95;;;26.33;;
32319;SDS011;19080;51.750;5.888;2022-11-21T08:28:03;50.45;;;28.27;;
32319;SDS011;19080;51.750;5.888;2022-11-21T08:30:31;55.30;;;29.80;;
32319;SDS011;19080;51.750;5.888;2022-11-21T08:32:58;53.95;;;28.23;;
32319;SDS011;19080;51.750;5.888;2022-11-21T08:35:26;51.35;;;29.65;;
32319;SDS011;19080;51.750;5.888;2022-11-21T08:37:59;51.30;;;28.17;;
32319;SDS011;19080;51.750;5.888;2022-11-21T08:40:27;54.72;;;30.17;;
32319;SDS011;19080;51.750;5.888;2022-11-21T08:42:56;49.97;;;29.73;;
32319;SDS011;19080;51.750;5.888;2022-11-21T08:45:30;56.58;;;31.52;;
32319;SDS011;19080;51.750;5.888;2022-11-21T08:47:57;53.88;;;29.83;;
32319;SDS011;19080;51.750;5.888;2022-11-21T08:50:24;53.85;;;29.77;;
32319;SDS011;19080;51.750;5.888;2022-11-21T08:52:51;53.92;;;28.63;;
32319;SDS011;19080;51.750;5.888;2022-11-21T08:55:18;55.45;;;28.75;;
32319;SDS011;19080;51.750;5.888;2022-11-21T08:57:44;50.67;;;28.90;;
32319;SDS011;19080;51.750;5.888;2022-11-21T09:00:11;49.78;;;27.98;;
32319;SDS011;19080;51.750;5.888;2022-11-21T09:02:38;49.08;;;29.27;;
32319;SDS011;19080;51.750;5.888;2022-11-21T09:05:05;50.30;;;27.95;;
32319;SDS011;19080;51.750;5.888;2022-11-21T09:07:32;49.03;;;28.20;;
32319;SDS011;19080;51.750;5.888;2022-11-21T09:09:58;50.67;;;29.20;;
32319;SDS011;19080;51.750;5.888;2022-11-21T09:12:25;46.95;;;26.70;;
32319;SDS011;19080;51.750;5.888;2022-11-21T09:14:51;49.65;;;28.60;;
32319;SDS011;19080;51.750;5.888;2022-11-21T09:17:47;49.78;;;29.00;;
32319;SDS011;19080;51.750;5.888;2022-11-21T09:20:32;51.80;;;29.48;;
32319;SDS011;19080;51.750;5.888;2022-11-21T09:23:06;50.03;;;29.75;;
32319;SDS011;19080;51.750;5.888;2022-11-21T09:25:37;47.33;;;27.77;;
32319;SDS011;19080;51.750;5.888;2022-11-21T09:28:05;45.30;;;27.85;;
32319;SDS011;19080;51.750;5.888;2022-11-21T09:30:34;43.65;;;27.85;;
32319;SDS011;19080;51.750;5.888;2022-11-21T09:33:05;40.67;;;25.75;;
32319;SDS011;19080;51.750;5.888;2022-11-21T09:35:33;44.10;;;27.25;;
32319;SDS011;19080;51.750;5.888;2022-11-21T09:37:59;43.45;;;26.50;;
32319;SDS011;19080;51.750;5.888;2022-11-21T09:40:28;46.92;;;26.23;;
32319;SDS011;19080;51.750;5.888;2022-11-21T09:42:59;35.55;;;24.20;;
32319;SDS011;19080;51.750;5.888;2022-11-21T09:45:36;48.67;;;27.33;;
32319;SDS011;19080;51.750;5.888;2022-11-21T09:48:10;42.53;;;26.63;;
32319;SDS011;19080;51.750;5.888;2022-11-21T09:50:49;43.97;;;27.55;;
32319;SDS011;19080;51.750;5.888;2022-11-21T09:53:21;43.55;;;26.83;;
32319;SDS011;19080;51.750;5.888;2022-11-21T09:55:55;42.35;;;26.35;;
32319;SDS011;19080;51.750;5.888;2022-11-21T09:58:44;48.53;;;29.05;;
32319;SDS011;19080;51.750;5.888;2022-11-21T10:01:14;40.47;;;25.65;;
32319;SDS011;19080;51.750;5.888;2022-11-21T10:03:46;45.92;;;29.05;;
32319;SDS011;19080;51.750;5.888;2022-11-21T10:06:18;44.47;;;26.85;;
32319;SDS011;19080;51.750;5.888;2022-11-21T10:08:48;47.90;;;28.60;;
32319;SDS011;19080;51.750;5.888;2022-11-21T10:11:39;42.72;;;27.27;;
32319;SDS011;19080;51.750;5.888;2022-11-21T10:17:40;48.80;;;28.05;;
32319;SDS011;19080;51.750;5.888;2022-11-21T10:22:59;40.58;;;25.60;;
32319;SDS011;19080;51.750;5.888;2022-11-21T10:25:30;48.78;;;29.08;;
32319;SDS011;19080;51.750;5.888;2022-11-21T10:28:05;46.30;;;28.65;;
32319;SDS011;19080;51.750;5.888;2022-11-21T10:30:41;43.67;;;28.40;;
32319;SDS011;19080;51.750;5.888;2022-11-21T10:33:11;41.65;;;25.00;;
32319;SDS011;19080;51.750;5.888;2022-11-21T10:35:44;43.63;;;26.45;;
32319;SDS011;19080;51.750;5.888;2022-11-21T10:38:19;37.53;;;25.25;;
32319;SDS011;19080;51.750;5.888;2022-11-21T10:40:50;39.05;;;24.83;;
32319;SDS011;19080;51.750;5.888;2022-11-21T10:43:40;32.08;;;23.33;;
32319;SDS011;19080;51.750;5.888;2022-11-21T10:46:31;57.38;;;23.05;;
32319;SDS011;19080;51.750;5.888;2022-11-21T10:48:58;36.58;;;23.23;;
32319;SDS011;19080;51.750;5.888;2022-11-21T10:51:39;28.08;;;20.45;;
32319;SDS011;19080;51.750;5.888;2022-11-21T10:54:16;30.25;;;20.98;;
32319;SDS011;19080;51.750;5.888;2022-11-21T10:57:00;30.88;;;21.52;;
32319;SDS011;19080;51.750;5.888;2022-11-21T10:59:38;29.17;;;20.08;;
32319;SDS011;19080;51.750;5.888;2022-11-21T11:04:38;22.35;;;17.02;;
32319;SDS011;19080;51.750;5.888;2022-11-21T11:07:20;22.08;;;16.70;;
32319;SDS011;19080;51.750;5.888;2022-11-21T11:10:20;21.33;;;16.65;;
32319;SDS011;19080;51.750;5.888;2022-11-21T11:12:53;17.88;;;14.02;;
32319;SDS011;19080;51.750;5.888;2022-11-21T11:18:36;9.45;;;8.32;;
32319;SDS011;19080;51.750;5.888;2022-11-21T11:23:38;9.43;;;7.05;;
32319;SDS011;19080;51.750;5.888;2022-11-21T11:26:16;14.23;;;8.10;;
32319;SDS011;19080;51.750;5.888;2022-11-21T11:28:50;10.98;;;8.60;;
32319;SDS011;19080;51.750;5.888;2022-11-21T11:31:16;10.80;;;8.32;;
32319;SDS011;19080;51.750;5.888;2022-11-21T11:39:13;13.38;;;7.78;;
32319;SDS011;19080;51.750;5.888;2022-11-21T11:47:58;13.23;;;6.75;;
32319;SDS011;19080;51.750;5.888;2022-11-21T11:53:20;12.90;;;6.70;;
32319;SDS011;19080;51.750;5.888;2022-11-21T11:58:54;7.85;;;4.55;;
32319;SDS011;19080;51.750;5.888;2022-11-21T12:04:43;10.73;;;5.40;;
32319;SDS011;19080;51.750;5.888;2022-11-21T12:10:58;11.27;;;5.30;;
32319;SDS011;19080;51.750;5.888;2022-11-21T12:13:50;11.07;;;5.65;;
32319;SDS011;19080;51.750;5.888;2022-11-21T12:16:19;16.40;;;5.85;;
32319;SDS011;19080;51.750;5.888;2022-11-21T12:18:52;9.93;;;5.68;;
32319;SDS011;19080;51.750;5.888;2022-11-21T12:21:23;10.48;;;5.60;;
32319;SDS011;19080;51.750;5.888;2022-11-21T12:23:51;8.98;;;5.07;;
32319;SDS011;19080;51.750;5.888;2022-11-21T12:26:34;12.20;;;6.05;;
32319;SDS011;19080;51.750;5.888;2022-11-21T12:29:23;9.68;;;5.47;;
32319;SDS011;19080;51.750;5.888;2022-11-21T12:44:36;10.60;;;4.13;;
32319;SDS011;19080;51.750;5.888;2022-11-21T12:47:26;12.18;;;4.82;;
32319;SDS011;19080;51.750;5.888;2022-11-21T12:59:11;7.15;;;3.40;;
32319;SDS011;19080;51.750;5.888;2022-11-21T13:04:29;15.90;;;5.50;;
32319;SDS011;19080;51.750;5.888;2022-11-21T13:07:01;14.50;;;8.07;;
32319;SDS011;19080;51.750;5.888;2022-11-21T13:09:33;10.30;;;5.70;;
32319;SDS011;19080;51.750;5.888;2022-11-21T13:12:06;10.07;;;5.30;;
32319;SDS011;19080;51.750;5.888;2022-11-21T13:15:03;8.63;;;4.28;;
32319;SDS011;19080;51.750;5.888;2022-11-21T13:20:18;9.00;;;4.75;;
32319;SDS011;19080;51.750;5.888;2022-11-21T13:22:50;12.88;;;6.65;;
32319;SDS011;19080;51.750;5.888;2022-11-21T13:25:39;12.70;;;5.22;;
32319;SDS011;19080;51.750;5.888;2022-11-21T13:30:48;11.52;;;4.28;;
32319;SDS011;19080;51.750;5.888;2022-11-21T13:36:12;7.82;;;3.67;;
32319;SDS011;19080;51.750;5.888;2022-11-21T13:47:00;15.25;;;4.93;;
32319;SDS011;19080;51.750;5.888;2022-11-21T13:49:30;10.82;;;4.63;;
32319;SDS011;19080;51.750;5.888;2022-11-21T13:58:19;9.70;;;4.90;;
32319;SDS011;19080;51.750;5.888;2022-11-21T14:01:54;12.35;;;5.00;;
32319;SDS011;19080;51.750;5.888;2022-11-21T14:11:50;11.70;;;4.93;;
32319;SDS011;19080;51.750;5.888;2022-11-21T14:14:25;14.70;;;5.72;;
32319;SDS011;19080;51.750;5.888;2022-11-21T14:17:02;13.00;;;5.85;;
32319;SDS011;19080;51.750;5.888;2022-11-21T14:19:32;10.85;;;4.63;;
32319;SDS011;19080;51.750;5.888;2022-11-21T14:22:00;8.68;;;4.95;;
32319;SDS011;19080;51.750;5.888;2022-11-21T14:24:27;11.65;;;4.65;;
32319;SDS011;19080;51.750;5.888;2022-11-21T14:26:54;9.10;;;4.43;;
32319;SDS011;19080;51.750;5.888;2022-11-21T14:29:25;11.00;;;4.13;;
32319;SDS011;19080;51.750;5.888;2022-11-21T14:31:54;9.27;;;4.53;;
32319;SDS011;19080;51.750;5.888;2022-11-21T14:34:28;8.45;;;3.78;;
32319;SDS011;19080;51.750;5.888;2022-11-21T14:36:57;13.98;;;4.93;;
32319;SDS011;19080;51.750;5.888;2022-11-21T14:39:26;12.43;;;4.85;;
32319;SDS011;19080;51.750;5.888;2022-11-21T14:42:10;13.00;;;5.05;;
32319;SDS011;19080;51.750;5.888;2022-11-21T14:44:40;12.55;;;5.28;;
32319;SDS011;19080;51.750;5.888;2022-11-21T14:47:12;11.63;;;5.40;;
32319;SDS011;19080;51.750;5.888;2022-11-21T14:49:51;7.80;;;4.60;;
32319;SDS011;19080;51.750;5.888;2022-11-21T14:52:26;11.00;;;5.43;;
32319;SDS011;19080;51.750;5.888;2022-11-21T14:54:59;11.02;;;4.55;;
32319;SDS011;19080;51.750;5.888;2022-11-21T14:57:49;13.40;;;5.18;;
32319;SDS011;19080;51.750;5.888;2022-11-21T15:00:18;11.10;;;4.82;;
32319;SDS011;19080;51.750;5.888;2022-11-21T15:03:18;11.90;;;4.75;;
32319;SDS011;19080;51.750;5.888;2022-11-21T15:05:48;12.63;;;4.80;;
32319;SDS011;19080;51.750;5.888;2022-11-21T15:08:34;11.20;;;4.50;;
32319;SDS011;19080;51.750;5.888;2022-11-21T15:11:23;8.93;;;4.50;;
32319;SDS011;19080;51.750;5.888;2022-11-21T15:13:56;10.48;;;4.63;;
32319;SDS011;19080;51.750;5.888;2022-11-21T15:16:47;6.15;;;4.00;;
32319;SDS011;19080;51.750;5.888;2022-11-21T15:19:18;10.27;;;4.55;;
32319;SDS011;19080;51.750;5.888;2022-11-21T15:21:50;7.85;;;4.07;;
32319;SDS011;19080;51.750;5.888;2022-11-21T15:32:57;6.93;;;2.95;;
32319;SDS011;19080;51.750;5.888;2022-11-21T15:40:56;11.45;;;3.50;;
32319;SDS011;19080;51.750;5.888;2022-11-21T15:43:31;8.65;;;2.88;;
32319;SDS011;19080;51.750;5.888;2022-11-21T15:46:13;9.95;;;2.75;;
32319;SDS011;19080;51.750;5.888;2022-11-21T15:48:43;6.50;;;2.65;;
32319;SDS011;19080;51.750;5.888;2022-11-21T15:51:10;7.90;;;3.78;;
32319;SDS011;19080;51.750;5.888;2022-11-21T15:53:37;11.85;;;3.13;;
32319;SDS011;19080;51.750;5.888;2022-11-21T15:56:04;5.43;;;2.70;;
32319;SDS011;19080;51.750;5.888;2022-11-21T15:58:31;7.03;;;2.60;;
32319;SDS011;19080;51.750;5.888;2022-11-21T16:00:58;9.07;;;3.38;;
32319;SDS011;19080;51.750;5.888;2022-11-21T16:03:25;7.72;;;3.28;;
32319;SDS011;19080;51.750;5.888;2022-11-21T16:05:52;5.60;;;2.97;;
32319;SDS011;19080;51.750;5.888;2022-11-21T16:08:18;7.78;;;3.20;;
32319;SDS011;19080;51.750;5.888;2022-11-21T16:10:45;10.27;;;3.35;;
32319;SDS011;19080;51.750;5.888;2022-11-21T16:13:12;8.68;;;2.88;;
32319;SDS011;19080;51.750;5.888;2022-11-21T16:15:38;9.77;;;3.65;;
32319;SDS011;19080;51.750;5.888;2022-11-21T16:18:05;7.63;;;3.33;;
32319;SDS011;19080;51.750;5.888;2022-11-21T16:20:31;7.35;;;3.25;;
32319;SDS011;19080;51.750;5.888;2022-11-21T16:22:58;10.13;;;4.18;;
32319;SDS011;19080;51.750;5.888;2022-11-21T16:25:25;7.22;;;3.20;;
32319;SDS011;19080;51.750;5.888;2022-11-21T16:27:51;10.40;;;2.90;;
32319;SDS011;19080;51.750;5.888;2022-11-21T16:30:19;8.18;;;2.83;;
32319;SDS011;19080;51.750;5.888;2022-11-21T16:32:45;9.55;;;3.88;;
32319;SDS011;19080;51.750;5.888;2022-11-21T16:35:12;6.63;;;3.03;;
32319;SDS011;19080;51.750;5.888;2022-11-21T16:37:39;5.90;;;3.05;;
32319;SDS011;19080;51.750;5.888;2022-11-21T16:40:05;8.05;;;3.90;;
32319;SDS011;19080;51.750;5.888;2022-11-21T16:42:32;9.35;;;3.53;;
32319;SDS011;19080;51.750;5.888;2022-11-21T16:44:59;6.03;;;3.50;;
32319;SDS011;19080;51.750;5.888;2022-11-21T16:47:25;6.18;;;3.53;;
32319;SDS011;19080;51.750;5.888;2022-11-21T16:49:52;6.03;;;2.92;;
32319;SDS011;19080;51.750;5.888;2022-11-21T16:52:18;6.53;;;3.35;;
32319;SDS011;19080;51.750;5.888;2022-11-21T16:54:45;9.05;;;3.50;;
32319;SDS011;19080;51.750;5.888;2022-11-21T16:57:12;7.95;;;3.72;;
32319;SDS011;19080;51.750;5.888;2022-11-21T16:59:39;7.57;;;3.78;;
32319;SDS011;19080;51.750;5.888;2022-11-21T17:02:05;7.15;;;3.47;;
32319;SDS011;19080;51.750;5.888;2022-11-21T17:04:32;7.07;;;3.08;;
32319;SDS011;19080;51.750;5.888;2022-11-21T17:07:01;6.03;;;2.72;;
32319;SDS011;19080;51.750;5.888;2022-11-21T17:09:28;5.35;;;2.35;;
32319;SDS011;19080;51.750;5.888;2022-11-21T17:11:57;6.45;;;3.08;;
32319;SDS011;19080;51.750;5.888;2022-11-21T17:14:24;5.50;;;2.78;;
32319;SDS011;19080;51.750;5.888;2022-11-21T17:16:51;8.30;;;2.78;;
32319;SDS011;19080;51.750;5.888;2022-11-21T17:19:17;10.23;;;3.20;;
32319;SDS011;19080;51.750;5.888;2022-11-21T17:21:44;5.85;;;2.40;;
32319;SDS011;19080;51.750;5.888;2022-11-21T17:24:14;9.15;;;2.42;;
32319;SDS011;19080;51.750;5.888;2022-11-21T17:26:41;5.63;;;2.80;;
32319;SDS011;19080;51.750;5.888;2022-11-21T17:29:07;6.00;;;2.78;;
32319;SDS011;19080;51.750;5.888;2022-11-21T17:31:35;5.90;;;2.72;;
32319;SDS011;19080;51.750;5.888;2022-11-21T17:34:01;3.85;;;2.63;;
32319;SDS011;19080;51.750;5.888;2022-11-21T17:36:28;5.35;;;2.75;;
32319;SDS011;19080;51.750;5.888;2022-11-21T17:38:56;5.70;;;2.83;;
32319;SDS011;19080;51.750;5.888;2022-11-21T17:41:23;4.72;;;2.40;;
32319;SDS011;19080;51.750;5.888;2022-11-21T17:43:55;6.72;;;2.60;;
32319;SDS011;19080;51.750;5.888;2022-11-21T17:46:22;4.28;;;2.65;;
32319;SDS011;19080;51.750;5.888;2022-11-21T17:48:54;8.23;;;4.70;;
32319;SDS011;19080;51.750;5.888;2022-11-21T17:51:25;6.78;;;3.92;;
32319;SDS011;19080;51.750;5.888;2022-11-21T17:53:54;5.07;;;2.97;;
32319;SDS011;19080;51.750;5.888;2022-11-21T17:56:22;4.20;;;2.22;;
32319;SDS011;19080;51.750;5.888;2022-11-21T17:58:50;8.30;;;2.97;;
32319;SDS011;19080;51.750;5.888;2022-11-21T18:01:18;6.85;;;2.50;;
32319;SDS011;19080;51.750;5.888;2022-11-21T18:03:46;6.03;;;2.88;;
32319;SDS011;19080;51.750;5.888;2022-11-21T18:06:14;6.68;;;2.45;;
32319;SDS011;19080;51.750;5.888;2022-11-21T18:08:44;5.15;;;2.40;;
32319;SDS011;19080;51.750;5.888;2022-11-21T18:11:12;16.30;;;3.17;;
32319;SDS011;19080;51.750;5.888;2022-11-21T18:13:44;4.27;;;2.03;;
32319;SDS011;19080;51.750;5.888;2022-11-21T18:16:11;11.10;;;4.78;;
32319;SDS011;19080;51.750;5.888;2022-11-21T18:18:39;13.95;;;6.45;;
32319;SDS011;19080;51.750;5.888;2022-11-21T18:21:08;17.30;;;5.85;;
32319;SDS011;19080;51.750;5.888;2022-11-21T18:23:36;17.75;;;6.38;;
32319;SDS011;19080;51.750;5.888;2022-11-21T18:26:13;13.77;;;5.65;;
32319;SDS011;19080;51.750;5.888;2022-11-21T18:28:47;15.63;;;5.15;;
32319;SDS011;19080;51.750;5.888;2022-11-21T18:31:35;22.63;;;7.88;;
32319;SDS011;19080;51.750;5.888;2022-11-21T18:34:02;18.17;;;9.07;;
32319;SDS011;19080;51.750;5.888;2022-11-21T18:36:31;15.32;;;5.30;;
32319;SDS011;19080;51.750;5.888;2022-11-21T18:38:57;22.27;;;7.93;;
32319;SDS011;19080;51.750;5.888;2022-11-21T18:41:34;22.08;;;8.55;;
32319;SDS011;19080;51.750;5.888;2022-11-21T18:44:03;17.52;;;7.18;;
32319;SDS011;19080;51.750;5.888;2022-11-21T18:46:32;18.05;;;7.18;;
32319;SDS011;19080;51.750;5.888;2022-11-21T18:49:01;21.17;;;6.28;;
32319;SDS011;19080;51.750;5.888;2022-11-21T18:51:31;14.50;;;6.20;;
32319;SDS011;19080;51.750;5.888;2022-11-21T18:54:05;9.43;;;4.85;;
32319;SDS011;19080;51.750;5.888;2022-11-21T18:56:33;20.77;;;8.27;;
32319;SDS011;19080;51.750;5.888;2022-11-21T18:59:01;11.52;;;3.95;;
32319;SDS011;19080;51.750;5.888;2022-11-21T19:01:28;6.80;;;3.85;;
32319;SDS011;19080;51.750;5.888;2022-11-21T19:03:55;10.70;;;4.72;;
32319;SDS011;19080;51.750;5.888;2022-11-21T19:06:22;9.07;;;3.72;;
32319;SDS011;19080;51.750;5.888;2022-11-21T19:08:51;9.15;;;3.80;;
32319;SDS011;19080;51.750;5.888;2022-11-21T19:11:20;13.85;;;6.18;;
32319;SDS011;19080;51.750;5.888;2022-11-21T19:13:49;11.02;;;5.28;;
32319;SDS011;19080;51.750;5.888;2022-11-21T19:16:17;14.48;;;6.78;;
32319;SDS011;19080;51.750;5.888;2022-11-21T19:18:45;11.27;;;6.00;;
32319;SDS011;19080;51.750;5.888;2022-11-21T19:21:35;8.23;;;4.38;;
32319;SDS011;19080;51.750;5.888;2022-11-21T19:24:03;7.22;;;3.50;;
32319;SDS011;19080;51.750;5.888;2022-11-21T19:26:32;12.68;;;6.45;;
32319;SDS011;19080;51.750;5.888;2022-11-21T19:28:59;12.13;;;7.28;;
32319;SDS011;19080;51.750;5.888;2022-11-21T19:31:25;13.73;;;5.93;;
32319;SDS011;19080;51.750;5.888;2022-11-21T19:33:52;12.70;;;5.63;;
32319;SDS011;19080;51.750;5.888;2022-11-21T19:36:19;12.80;;;6.18;;
32319;SDS011;19080;51.750;5.888;2022-11-21T19:38:46;14.35;;;6.32;;
32319;SDS011;19080;51.750;5.888;2022-11-21T19:41:20;12.07;;;3.97;;
32319;SDS011;19080;51.750;5.888;2022-11-21T19:43:51;14.68;;;6.88;;
32319;SDS011;19080;51.750;5.888;2022-11-21T19:46:26;15.57;;;7.05;;
32319;SDS011;19080;51.750;5.888;2022-11-21T19:49:00;11.65;;;7.60;;
32319;SDS011;19080;51.750;5.888;2022-11-21T19:51:28;12.18;;;4.38;;
32319;SDS011;19080;51.750;5.888;2022-11-21T19:53:56;8.63;;;3.40;;
32319;SDS011;19080;51.750;5.888;2022-11-21T19:56:23;8.50;;;3.50;;
32319;SDS011;19080;51.750;5.888;2022-11-21T19:58:51;9.43;;;3.88;;
32319;SDS011;19080;51.750;5.888;2022-11-21T20:01:19;7.80;;;3.47;;
32319;SDS011;19080;51.750;5.888;2022-11-21T20:03:48;9.10;;;3.97;;
32319;SDS011;19080;51.750;5.888;2022-11-21T20:06:18;9.30;;;3.85;;
32319;SDS011;19080;51.750;5.888;2022-11-21T20:08:57;10.48;;;3.95;;
32319;SDS011;19080;51.750;5.888;2022-11-21T20:13:59;14.15;;;4.28;;
32319;SDS011;19080;51.750;5.888;2022-11-21T20:16:27;10.98;;;5.20;;
32319;SDS011;19080;51.750;5.888;2022-11-21T20:18:56;10.05;;;4.28;;
32319;SDS011;19080;51.750;5.888;2022-11-21T20:21:24;12.20;;;6.50;;
32319;SDS011;19080;51.750;5.888;2022-11-21T20:23:51;14.32;;;5.95;;
32319;SDS011;19080;51.750;5.888;2022-11-21T20:26:19;8.73;;;4.45;;
32319;SDS011;19080;51.750;5.888;2022-11-21T20:28:47;13.73;;;5.10;;
32319;SDS011;19080;51.750;5.888;2022-11-21T20:31:15;10.15;;;4.15;;
32319;SDS011;19080;51.750;5.888;2022-11-21T20:33:42;12.52;;;4.57;;
32319;SDS011;19080;51.750;5.888;2022-11-21T20:36:11;16.25;;;4.30;;
32319;SDS011;19080;51.750;5.888;2022-11-21T20:38:47;9.63;;;4.97;;
32319;SDS011;19080;51.750;5.888;2022-11-21T20:41:16;8.90;;;4.38;;
32319;SDS011;19080;51.750;5.888;2022-11-21T20:43:43;10.95;;;4.88;;
32319;SDS011;19080;51.750;5.888;2022-11-21T20:46:31;13.40;;;4.88;;
32319;SDS011;19080;51.750;5.888;2022-11-21T20:48:59;10.07;;;4.10;;
32319;SDS011;19080;51.750;5.888;2022-11-21T20:51:27;11.07;;;4.18;;
32319;SDS011;19080;51.750;5.888;2022-11-21T20:54:14;10.43;;;4.45;;
32319;SDS011;19080;51.750;5.888;2022-11-21T20:56:40;10.25;;;4.20;;
32319;SDS011;19080;51.750;5.888;2022-11-21T20:59:09;10.15;;;4.47;;
32319;SDS011;19080;51.750;5.888;2022-11-21T21:01:37;12.35;;;5.53;;
32319;SDS011;19080;51.750;5.888;2022-11-21T21:04:04;9.73;;;4.63;;
32319;SDS011;19080;51.750;5.888;2022-11-21T21:06:31;12.70;;;4.10;;
32319;SDS011;19080;51.750;5.888;2022-11-21T21:08:59;13.35;;;4.68;;
32319;SDS011;19080;51.750;5.888;2022-11-21T21:11:25;10.38;;;3.97;;
32319;SDS011;19080;51.750;5.888;2022-11-21T21:14:12;10.02;;;4.30;;
32319;SDS011;19080;51.750;5.888;2022-11-21T21:16:39;11.98;;;4.80;;
32319;SDS011;19080;51.750;5.888;2022-11-21T21:19:05;12.30;;;4.70;;
32319;SDS011;19080;51.750;5.888;2022-11-21T21:21:32;9.30;;;3.88;;
32319;SDS011;19080;51.750;5.888;2022-11-21T21:23:59;9.13;;;4.13;;
32319;SDS011;19080;51.750;5.888;2022-11-21T21:26:29;8.35;;;4.40;;
32319;SDS011;19080;51.750;5.888;2022-11-21T21:29:02;10.82;;;4.50;;
32319;SDS011;19080;51.750;5.888;2022-11-21T21:31:29;11.68;;;5.05;;
32319;SDS011;19080;51.750;5.888;2022-11-21T21:33:56;11.45;;;5.10;;
32319;SDS011;19080;51.750;5.888;2022-11-21T21:36:24;9.15;;;4.30;;
32319;SDS011;19080;51.750;5.888;2022-11-21T21:38:53;12.32;;;4.38;;
32319;SDS011;19080;51.750;5.888;2022-11-21T21:41:22;10.85;;;4.85;;
32319;SDS011;19080;51.750;5.888;2022-11-21T21:43:51;9.48;;;5.38;;
32319;SDS011;19080;51.750;5.888;2022-11-21T21:46:20;12.25;;;5.10;;
32319;SDS011;19080;51.750;5.888;2022-11-21T21:48:50;11.52;;;5.10;;
32319;SDS011;19080;51.750;5.888;2022-11-21T21:51:18;11.32;;;4.90;;
32319;SDS011;19080;51.750;5.888;2022-11-21T21:53:48;9.43;;;4.72;;
32319;SDS011;19080;51.750;5.888;2022-11-21T21:56:16;13.90;;;4.85;;
32319;SDS011;19080;51.750;5.888;2022-11-21T21:58:44;11.68;;;4.72;;
32319;SDS011;19080;51.750;5.888;2022-11-21T22:01:17;10.60;;;4.47;;
32319;SDS011;19080;51.750;5.888;2022-11-21T22:03:45;15.05;;;5.30;;
32319;SDS011;19080;51.750;5.888;2022-11-21T22:06:13;17.50;;;6.38;;
32319;SDS011;19080;51.750;5.888;2022-11-21T22:08:42;11.75;;;4.38;;
32319;SDS011;19080;51.750;5.888;2022-11-21T22:11:12;10.50;;;4.78;;
32319;SDS011;19080;51.750;5.888;2022-11-21T22:13:39;12.48;;;4.43;;
32319;SDS011;19080;51.750;5.888;2022-11-21T22:16:09;10.15;;;4.10;;
32319;SDS011;19080;51.750;5.888;2022-11-21T22:18:36;11.43;;;4.13;;
32319;SDS011;19080;51.750;5.888;2022-11-21T22:21:14;14.75;;;5.05;;
32319;SDS011;19080;51.750;5.888;2022-11-21T22:23:45;11.75;;;4.70;;
32319;SDS011;19080;51.750;5.888;2022-11-21T22:26:32;10.90;;;4.40;;
32319;SDS011;19080;51.750;5.888;2022-11-21T22:28:59;12.77;;;4.53;;
32319;SDS011;19080;51.750;5.888;2022-11-21T22:31:27;11.80;;;4.65;;
32319;SDS011;19080;51.750;5.888;2022-11-21T22:33:56;15.38;;;6.07;;
32319;SDS011;19080;51.750;5.888;2022-11-21T22:36:23;11.90;;;5.10;;
32319;SDS011;19080;51.750;5.888;2022-11-21T22:38:54;9.60;;;4.93;;
32319;SDS011;19080;51.750;5.888;2022-11-21T22:41:23;10.88;;;5.32;;
32319;SDS011;19080;51.750;5.888;2022-11-21T22:43:53;9.73;;;4.28;;
32319;SDS011;19080;51.750;5.888;2022-11-21T22:46:24;10.32;;;4.72;;
32319;SDS011;19080;51.750;5.888;2022-11-21T22:48:52;10.48;;;4.05;;
32319;SDS011;19080;51.750;5.888;2022-11-21T22:51:23;12.13;;;4.32;;
32319;SDS011;19080;51.750;5.888;2022-11-21T22:53:52;14.70;;;4.40;;
32319;SDS011;19080;51.750;5.888;2022-11-21T22:56:20;15.02;;;4.72;;
32319;SDS011;19080;51.750;5.888;2022-11-21T22:58:48;16.45;;;4.53;;
32319;SDS011;19080;51.750;5.888;2022-11-21T23:01:16;9.43;;;4.28;;
32319;SDS011;19080;51.750;5.888;2022-11-21T23:03:47;12.35;;;4.38;;
32319;SDS011;19080;51.750;5.888;2022-11-21T23:06:19;14.10;;;4.63;;
32319;SDS011;19080;51.750;5.888;2022-11-21T23:08:49;12.85;;;5.13;;
32319;SDS011;19080;51.750;5.888;2022-11-21T23:11:18;11.55;;;4.80;;
32319;SDS011;19080;51.750;5.888;2022-11-21T23:13:48;7.57;;;4.40;;
32319;SDS011;19080;51.750;5.888;2022-11-21T23:16:15;9.55;;;4.03;;
32319;SDS011;19080;51.750;5.888;2022-11-21T23:18:42;12.07;;;4.63;;
32319;SDS011;19080;51.750;5.888;2022-11-21T23:21:10;14.05;;;5.18;;
32319;SDS011;19080;51.750;5.888;2022-11-21T23:23:38;14.32;;;5.55;;
32319;SDS011;19080;51.750;5.888;2022-11-21T23:26:05;11.35;;;5.60;;
32319;SDS011;19080;51.750;5.888;2022-11-21T23:28:33;20.42;;;5.18;;
32319;SDS011;19080;51.750;5.888;2022-11-21T23:31:00;13.45;;;5.38;;
32319;SDS011;19080;51.750;5.888;2022-11-21T23:33:27;16.25;;;5.70;;
32319;SDS011;19080;51.750;5.888;2022-11-21T23:35:54;16.70;;;5.27;;
32319;SDS011;19080;51.750;5.888;2022-11-21T23:38:20;14.27;;;5.22;;
32319;SDS011;19080;51.750;5.888;2022-11-21T23:40:47;11.35;;;4.75;;
32319;SDS011;19080;51.750;5.888;2022-11-21T23:43:14;8.57;;;4.18;;
32319;SDS011;19080;51.750;5.888;2022-11-21T23:45:43;11.15;;;4.65;;
32319;SDS011;19080;51.750;5.888;2022-11-21T23:48:10;10.13;;;4.40;;
32319;SDS011;19080;51.750;5.888;2022-11-21T23:50:37;11.55;;;4.75;;
32319;SDS011;19080;51.750;5.888;2022-11-21T23:53:04;10.80;;;4.35;;
32319;SDS011;19080;51.750;5.888;2022-11-21T23:55:30;11.88;;;5.07;;
32319;SDS011;19080;51.750;5.888;2022-11-21T23:57:57;11.32;;;4.70;;
